createdAt,value
2023-04-03T00:00:06.090Z,10.75
2023-04-03T00:05:31.135Z,7.20
2023-04-03T00:10:54.645Z,12.82
2023-04-03T00:16:18.264Z,10.45
2023-04-03T00:21:43.420Z,8.77
2023-04-03T00:27:07.148Z,9.55
2023-04-03T00:32:30.734Z,7.75
2023-04-03T00:37:56.107Z,10.00
2023-04-03T00:43:20.874Z,11.07
2023-04-03T00:48:45.885Z,12.27
2023-04-03T00:54:11.919Z,12.35
2023-04-03T00:59:36.598Z,6.35
2023-04-03T01:05:00.114Z,8.02
2023-04-03T01:10:26.574Z,6.13
2023-04-03T01:15:50.509Z,7.32
2023-04-03T01:21:31.543Z,8.50
2023-04-03T01:26:56.858Z,8.98
2023-04-03T01:32:21.580Z,7.72
2023-04-03T01:37:45.056Z,7.00
2023-04-03T01:43:08.385Z,6.20
2023-04-03T01:48:32.869Z,9.52
2023-04-03T01:53:55.928Z,6.75
2023-04-03T01:59:20.230Z,8.82
2023-04-03T02:04:44.596Z,6.22
2023-04-03T02:10:08.842Z,6.03
2023-04-03T02:15:32.535Z,7.70
2023-04-03T02:20:59.889Z,8.48
2023-04-03T02:26:24.356Z,6.80
2023-04-03T02:31:48.243Z,6.15
2023-04-03T02:37:15.470Z,5.82
2023-04-03T02:42:40.880Z,4.95
2023-04-03T02:48:05.165Z,5.47
2023-04-03T02:53:30.838Z,4.80
2023-04-03T02:58:55.278Z,5.95
2023-04-03T03:04:20.073Z,6.85
2023-04-03T03:09:45.211Z,4.72
2023-04-03T03:15:09.757Z,4.10
2023-04-03T03:20:33.353Z,5.32
2023-04-03T03:25:58.931Z,4.32
2023-04-03T03:31:22.082Z,5.07
2023-04-03T03:36:47.639Z,4.95
2023-04-03T03:42:12.963Z,5.10
2023-04-03T03:47:37.952Z,5.20
2023-04-03T03:53:04.579Z,6.78
2023-04-03T03:58:29.998Z,5.38
2023-04-03T04:03:55.914Z,5.18
2023-04-03T04:09:24.146Z,6.63
2023-04-03T04:14:50.442Z,5.43
2023-04-03T04:20:14.324Z,4.78
2023-04-03T04:25:39.316Z,5.15
2023-04-03T04:31:05.519Z,5.78
2023-04-03T04:36:30.590Z,4.93
2023-04-03T04:41:55.731Z,8.80
2023-04-03T04:47:23.563Z,7.72
2023-04-03T04:52:48.204Z,5.15
2023-04-03T04:58:12.013Z,5.75
2023-04-03T05:03:38.154Z,5.28
2023-04-03T05:09:03.384Z,8.60
2023-04-03T05:14:28.263Z,5.50
2023-04-03T05:19:56.134Z,6.38
2023-04-03T05:25:23.272Z,4.90
2023-04-03T05:30:55.231Z,5.53
2023-04-03T05:36:20.695Z,5.65
2023-04-03T05:41:49.918Z,5.00
2023-04-03T05:47:15.593Z,5.20
2023-04-03T05:52:43.378Z,8.07
2023-04-03T05:58:08.394Z,5.30
2023-04-03T06:03:38.621Z,3.47
2023-04-03T06:09:05.962Z,5.05
2023-04-03T06:14:29.583Z,5.00
2023-04-03T06:19:54.003Z,5.00
2023-04-03T06:25:19.821Z,5.65
2023-04-03T06:30:44.607Z,5.28
2023-04-03T06:36:09.057Z,5.05
2023-04-03T06:41:35.954Z,4.10
2023-04-03T06:47:01.861Z,5.63
2023-04-03T06:52:26.214Z,6.18
2023-04-03T06:57:52.052Z,3.92
2023-04-03T07:03:17.331Z,4.38
2023-04-03T07:08:41.524Z,6.30
2023-04-03T07:14:07.134Z,5.20
2023-04-03T07:19:31.568Z,3.28
2023-04-03T07:24:54.986Z,7.65
2023-04-03T07:30:19.825Z,4.78
2023-04-03T07:35:44.679Z,5.15
2023-04-03T07:41:08.719Z,6.97
2023-04-03T07:46:33.572Z,6.22
2023-04-03T07:51:57.042Z,8.38
2023-04-03T07:57:20.666Z,4.88
2023-04-03T08:02:51.442Z,4.25
2023-04-03T08:08:16.919Z,4.47
2023-04-03T08:13:42.524Z,9.57
2023-04-03T08:19:15.101Z,6.78
2023-04-03T08:24:56.185Z,5.63
2023-04-03T08:30:23.590Z,12.48
2023-04-03T08:35:49.077Z,8.23
2023-04-03T08:41:20.708Z,8.45
2023-04-03T08:46:52.963Z,7.65
2023-04-03T08:52:20.759Z,4.85
2023-04-03T08:57:47.319Z,11.55
2023-04-03T09:03:15.022Z,7.95
2023-04-03T09:08:43.472Z,6.53
2023-04-03T09:14:10.780Z,6.28
2023-04-03T09:19:42.987Z,6.82
2023-04-03T09:25:12.494Z,9.95
2023-04-03T09:30:37.061Z,6.72
2023-04-03T09:36:01.083Z,8.65
2023-04-03T09:41:27.427Z,18.40
2023-04-03T09:46:52.998Z,19.40
2023-04-03T09:52:21.673Z,22.73
2023-04-03T09:57:51.608Z,23.17
2023-04-03T10:03:27.545Z,12.80
2023-04-03T10:09:01.935Z,9.57
2023-04-03T10:14:27.275Z,14.77
2023-04-03T10:19:54.300Z,10.23
2023-04-03T10:25:24.470Z,9.73
2023-04-03T10:30:52.477Z,14.95
2023-04-03T10:36:21.968Z,29.17
2023-04-03T10:41:55.778Z,22.83
2023-04-03T10:47:24.528Z,24.13
2023-04-03T10:52:53.169Z,36.72
2023-04-03T10:58:20.210Z,18.77
2023-04-03T11:03:47.375Z,16.67
2023-04-03T11:09:19.037Z,19.98
2023-04-03T11:14:45.629Z,25.80
2023-04-03T11:20:17.564Z,20.80
2023-04-03T11:25:44.278Z,17.45
2023-04-03T11:31:15.347Z,16.30
2023-04-03T11:36:43.430Z,23.83
2023-04-03T11:42:17.820Z,16.23
2023-04-03T11:47:48.401Z,26.52
2023-04-03T11:53:33.930Z,16.63
2023-04-03T11:59:19.294Z,27.90
2023-04-03T12:05:04.511Z,28.95
2023-04-03T12:10:32.628Z,38.63
2023-04-03T12:15:58.564Z,40.37
2023-04-03T12:21:22.939Z,60.95
2023-04-03T12:26:49.372Z,62.85
2023-04-03T12:32:22.022Z,71.10
2023-04-03T12:37:53.528Z,71.07
2023-04-03T12:43:25.444Z,63.55
2023-04-03T12:48:50.800Z,54.13
2023-04-03T12:54:16.273Z,51.10
2023-04-03T12:59:44.849Z,47.72
2023-04-03T13:05:09.961Z,36.78
2023-04-03T13:10:34.938Z,36.80
2023-04-03T13:16:00.761Z,36.75
2023-04-03T13:21:27.426Z,24.38
2023-04-03T13:26:53.030Z,22.92
2023-04-03T13:32:20.625Z,17.83
2023-04-03T13:37:56.410Z,23.27
2023-04-03T13:43:21.717Z,21.25
2023-04-03T13:48:48.162Z,20.13
2023-04-03T13:54:19.223Z,22.75
2023-04-03T13:59:44.220Z,16.70
2023-04-03T14:05:11.624Z,23.08
2023-04-03T14:10:37.213Z,15.13
2023-04-03T14:16:14.917Z,16.90
2023-04-03T14:21:41.471Z,19.15
2023-04-03T14:27:13.486Z,24.13
2023-04-03T14:32:38.257Z,29.75
2023-04-03T14:38:03.464Z,22.58
2023-04-03T14:43:27.514Z,22.75
2023-04-03T14:48:51.402Z,27.33
2023-04-03T14:54:21.092Z,27.83
2023-04-03T14:59:46.520Z,31.88
2023-04-03T15:05:13.256Z,23.27
2023-04-03T15:10:39.083Z,26.98
2023-04-03T15:16:03.020Z,16.38
2023-04-03T15:21:26.538Z,14.50
2023-04-03T15:26:54.622Z,26.58
2023-04-03T15:32:19.866Z,32.47
2023-04-03T15:37:44.322Z,31.98
2023-04-03T15:43:09.560Z,26.67
2023-04-03T15:48:33.627Z,19.98
2023-04-03T15:53:57.944Z,18.17
2023-04-03T15:59:23.568Z,11.32
2023-04-03T16:04:49.360Z,16.90
2023-04-03T16:10:14.060Z,21.73
2023-04-03T16:15:40.307Z,12.88
2023-04-03T16:21:04.328Z,8.25
2023-04-03T16:26:30.413Z,6.28
2023-04-03T16:31:55.902Z,8.73
2023-04-03T16:37:20.032Z,8.25
2023-04-03T16:42:43.390Z,10.32
2023-04-03T16:48:08.934Z,10.25
2023-04-03T16:53:34.974Z,7.78
2023-04-03T16:58:58.619Z,10.18
2023-04-03T17:04:25.734Z,10.00
2023-04-03T17:09:51.270Z,10.07
2023-04-03T17:15:15.053Z,13.88
2023-04-03T17:20:40.347Z,12.43
2023-04-03T17:26:07.168Z,10.75
2023-04-03T17:31:34.925Z,11.40
2023-04-03T17:37:00.307Z,13.27
2023-04-03T17:42:24.975Z,15.80
2023-04-03T17:47:50.227Z,13.45
2023-04-03T17:53:16.336Z,13.85
2023-04-03T17:58:40.494Z,18.48
2023-04-03T18:04:08.136Z,11.13
2023-04-03T18:09:35.057Z,16.30
2023-04-03T18:15:00.284Z,27.13
2023-04-03T18:20:25.437Z,39.95
2023-04-03T18:25:53.608Z,57.45
2023-04-03T18:31:19.746Z,75.72
2023-04-03T18:36:43.173Z,69.85
2023-04-03T18:42:10.743Z,69.75
2023-04-03T18:47:34.426Z,55.78
2023-04-03T18:52:59.158Z,51.42
2023-04-03T18:58:24.759Z,53.55
2023-04-03T19:03:49.226Z,53.28
2023-04-03T19:09:13.403Z,34.72
2023-04-03T19:14:39.078Z,31.60
2023-04-03T19:20:02.592Z,27.25
2023-04-03T19:25:26.360Z,25.15
2023-04-03T19:30:51.681Z,20.58
2023-04-03T19:36:16.776Z,18.58
2023-04-03T19:41:42.448Z,17.33
2023-04-03T19:47:07.460Z,17.73
2023-04-03T19:52:30.948Z,17.80
2023-04-03T19:57:55.070Z,17.00
2023-04-03T20:03:20.424Z,17.10
2023-04-03T20:08:44.897Z,19.65
2023-04-03T20:14:08.143Z,19.25
2023-04-03T20:19:33.573Z,16.15
2023-04-03T20:25:05.196Z,17.52
2023-04-03T20:30:29.827Z,16.05
2023-04-03T20:35:56.758Z,17.23
2023-04-03T20:41:20.509Z,16.67
2023-04-03T20:46:52.852Z,15.02
2023-04-03T20:52:18.807Z,16.70
2023-04-03T20:57:54.385Z,12.35
2023-04-03T21:03:18.282Z,14.38
2023-04-03T21:09:01.960Z,18.48
2023-04-03T21:14:43.692Z,13.02
2023-04-03T21:20:09.536Z,13.57
2023-04-03T21:25:34.069Z,13.40
2023-04-03T21:30:58.476Z,15.38
2023-04-03T21:36:25.888Z,13.98
2023-04-03T21:41:50.525Z,13.27
2023-04-03T21:47:15.568Z,11.55
2023-04-03T21:52:41.169Z,13.88
2023-04-03T21:58:05.630Z,12.32
2023-04-03T22:03:30.763Z,13.07
2023-04-03T22:08:57.583Z,13.77
2023-04-03T22:14:21.323Z,16.42
2023-04-03T22:19:46.184Z,15.63
2023-04-03T22:25:11.888Z,14.70
2023-04-03T22:30:35.027Z,22.02
2023-04-03T22:35:58.305Z,24.67
2023-04-03T22:41:24.500Z,20.27
2023-04-03T22:46:48.645Z,22.45
2023-04-03T22:52:12.536Z,23.73
2023-04-03T22:57:37.657Z,27.77
2023-04-03T23:03:02.789Z,24.73
2023-04-03T23:08:26.607Z,19.92
2023-04-03T23:13:51.284Z,19.48
2023-04-03T23:19:14.812Z,19.65
2023-04-03T23:24:39.220Z,23.40
2023-04-03T23:30:04.862Z,35.22
2023-04-03T23:35:28.898Z,29.95
2023-04-03T23:40:52.280Z,36.38
2023-04-03T23:46:19.850Z,33.85
2023-04-03T23:51:43.750Z,34.80
2023-04-03T23:57:07.352Z,38.80
